sensor_id;sensor_type;location;lat;lon;timestamp;P1;durP1;ratioP1;P2;durP2;ratioP2
60038;SDS011;45916;52.734;6.544;2024-02-23T00:02:06;3.90;;;0.80;;
60038;SDS011;45916;52.734;6.544;2024-02-23T00:04:32;3.15;;;0.60;;
60038;SDS011;45916;52.734;6.544;2024-02-23T00:06:58;1.48;;;0.63;;
60038;SDS011;45916;52.734;6.544;2024-02-23T00:09:24;2.40;;;0.60;;
60038;SDS011;45916;52.734;6.544;2024-02-23T00:11:50;2.50;;;0.73;;
60038;SDS011;45916;52.734;6.544;2024-02-23T00:14:16;2.33;;;0.50;;
60038;SDS011;45916;52.734;6.544;2024-02-23T00:16:43;1.90;;;0.70;;
60038;SDS011;45916;52.734;6.544;2024-02-23T00:19:09;2.55;;;0.50;;
60038;SDS011;45916;52.734;6.544;2024-02-23T00:21:36;3.00;;;0.60;;
60038;SDS011;45916;52.734;6.544;2024-02-23T00:24:02;2.95;;;0.75;;
60038;SDS011;45916;52.734;6.544;2024-02-23T00:26:28;3.28;;;0.90;;
60038;SDS011;45916;52.734;6.544;2024-02-23T00:28:55;2.67;;;0.98;;
60038;SDS011;45916;52.734;6.544;2024-02-23T00:31:21;3.75;;;0.90;;
60038;SDS011;45916;52.734;6.544;2024-02-23T00:33:47;1.25;;;0.60;;
60038;SDS011;45916;52.734;6.544;2024-02-23T00:36:13;1.05;;;0.60;;
60038;SDS011;45916;52.734;6.544;2024-02-23T00:38:39;1.77;;;0.60;;
60038;SDS011;45916;52.734;6.544;2024-02-23T00:41:05;2.97;;;0.70;;
60038;SDS011;45916;52.734;6.544;2024-02-23T00:43:38;1.77;;;0.80;;
60038;SDS011;45916;52.734;6.544;2024-02-23T00:46:04;2.67;;;0.90;;
60038;SDS011;45916;52.734;6.544;2024-02-23T00:48:30;4.00;;;1.00;;
60038;SDS011;45916;52.734;6.544;2024-02-23T00:50:56;2.78;;;0.93;;
60038;SDS011;45916;52.734;6.544;2024-02-23T00:53:22;1.90;;;0.90;;
60038;SDS011;45916;52.734;6.544;2024-02-23T00:55:48;2.97;;;1.08;;
60038;SDS011;45916;52.734;6.544;2024-02-23T00:58:15;2.00;;;0.75;;
60038;SDS011;45916;52.734;6.544;2024-02-23T01:00:41;3.97;;;1.15;;
60038;SDS011;45916;52.734;6.544;2024-02-23T01:03:07;3.22;;;0.98;;
60038;SDS011;45916;52.734;6.544;2024-02-23T01:05:33;2.85;;;1.00;;
60038;SDS011;45916;52.734;6.544;2024-02-23T01:07:59;2.83;;;0.80;;
60038;SDS011;45916;52.734;6.544;2024-02-23T01:10:25;2.67;;;0.90;;
60038;SDS011;45916;52.734;6.544;2024-02-23T01:12:52;2.40;;;1.08;;
60038;SDS011;45916;52.734;6.544;2024-02-23T01:15:18;4.10;;;1.17;;
60038;SDS011;45916;52.734;6.544;2024-02-23T01:17:44;4.53;;;1.10;;
60038;SDS011;45916;52.734;6.544;2024-02-23T01:20:11;4.38;;;1.17;;
60038;SDS011;45916;52.734;6.544;2024-02-23T01:22:37;4.05;;;1.02;;
60038;SDS011;45916;52.734;6.544;2024-02-23T01:25:03;4.10;;;1.38;;
60038;SDS011;45916;52.734;6.544;2024-02-23T01:27:29;3.95;;;1.48;;
60038;SDS011;45916;52.734;6.544;2024-02-23T01:29:55;4.60;;;1.55;;
60038;SDS011;45916;52.734;6.544;2024-02-23T01:32:22;7.22;;;2.05;;
60038;SDS011;45916;52.734;6.544;2024-02-23T01:34:48;6.10;;;1.67;;
60038;SDS011;45916;52.734;6.544;2024-02-23T01:37:14;7.40;;;1.88;;
60038;SDS011;45916;52.734;6.544;2024-02-23T01:39:40;4.88;;;1.77;;
60038;SDS011;45916;52.734;6.544;2024-02-23T01:42:08;6.45;;;1.83;;
60038;SDS011;45916;52.734;6.544;2024-02-23T01:44:34;4.40;;;1.50;;
60038;SDS011;45916;52.734;6.544;2024-02-23T01:47:00;5.50;;;2.00;;
60038;SDS011;45916;52.734;6.544;2024-02-23T01:49:26;5.53;;;1.90;;
60038;SDS011;45916;52.734;6.544;2024-02-23T01:52:02;5.35;;;1.95;;
60038;SDS011;45916;52.734;6.544;2024-02-23T01:54:29;6.63;;;2.38;;
60038;SDS011;45916;52.734;6.544;2024-02-23T01:56:55;9.07;;;2.13;;
60038;SDS011;45916;52.734;6.544;2024-02-23T01:59:23;4.75;;;2.00;;
60038;SDS011;45916;52.734;6.544;2024-02-23T02:01:49;6.10;;;2.25;;
60038;SDS011;45916;52.734;6.544;2024-02-23T02:04:15;6.15;;;2.30;;
60038;SDS011;45916;52.734;6.544;2024-02-23T02:06:41;8.07;;;2.25;;
60038;SDS011;45916;52.734;6.544;2024-02-23T02:09:08;10.32;;;2.70;;
60038;SDS011;45916;52.734;6.544;2024-02-23T02:11:34;7.13;;;2.28;;
60038;SDS011;45916;52.734;6.544;2024-02-23T02:14:00;10.35;;;3.38;;
60038;SDS011;45916;52.734;6.544;2024-02-23T02:16:26;9.60;;;2.95;;
60038;SDS011;45916;52.734;6.544;2024-02-23T02:18:52;9.88;;;2.88;;
60038;SDS011;45916;52.734;6.544;2024-02-23T02:21:18;9.48;;;3.20;;
60038;SDS011;45916;52.734;6.544;2024-02-23T02:23:48;8.88;;;2.20;;
60038;SDS011;45916;52.734;6.544;2024-02-23T02:26:14;10.77;;;3.38;;
60038;SDS011;45916;52.734;6.544;2024-02-23T02:28:40;8.45;;;3.38;;
60038;SDS011;45916;52.734;6.544;2024-02-23T02:31:07;8.13;;;3.10;;
60038;SDS011;45916;52.734;6.544;2024-02-23T02:33:33;7.65;;;2.75;;
60038;SDS011;45916;52.734;6.544;2024-02-23T02:35:59;9.80;;;3.25;;
60038;SDS011;45916;52.734;6.544;2024-02-23T02:38:25;9.02;;;3.00;;
60038;SDS011;45916;52.734;6.544;2024-02-23T02:40:51;11.88;;;3.58;;
60038;SDS011;45916;52.734;6.544;2024-02-23T02:43:17;6.85;;;2.95;;
60038;SDS011;45916;52.734;6.544;2024-02-23T02:45:43;10.20;;;3.70;;
60038;SDS011;45916;52.734;6.544;2024-02-23T02:48:09;10.35;;;4.25;;
60038;SDS011;45916;52.734;6.544;2024-02-23T02:50:35;9.68;;;3.47;;
60038;SDS011;45916;52.734;6.544;2024-02-23T02:53:01;9.40;;;3.47;;
60038;SDS011;45916;52.734;6.544;2024-02-23T02:55:27;7.90;;;2.67;;
60038;SDS011;45916;52.734;6.544;2024-02-23T02:57:54;6.25;;;2.50;;
60038;SDS011;45916;52.734;6.544;2024-02-23T03:00:20;8.20;;;2.35;;
60038;SDS011;45916;52.734;6.544;2024-02-23T03:02:46;6.47;;;2.40;;
60038;SDS011;45916;52.734;6.544;2024-02-23T03:05:12;7.93;;;2.83;;
60038;SDS011;45916;52.734;6.544;2024-02-23T03:07:38;8.88;;;2.60;;
60038;SDS011;45916;52.734;6.544;2024-02-23T03:10:04;7.40;;;2.65;;
60038;SDS011;45916;52.734;6.544;2024-02-23T03:12:31;6.03;;;2.17;;
60038;SDS011;45916;52.734;6.544;2024-02-23T03:14:57;7.80;;;3.28;;
60038;SDS011;45916;52.734;6.544;2024-02-23T03:17:23;8.80;;;3.00;;
60038;SDS011;45916;52.734;6.544;2024-02-23T03:19:49;6.07;;;2.50;;
60038;SDS011;45916;52.734;6.544;2024-02-23T03:22:15;9.07;;;2.45;;
60038;SDS011;45916;52.734;6.544;2024-02-23T03:24:41;7.50;;;2.35;;
60038;SDS011;45916;52.734;6.544;2024-02-23T03:27:07;4.85;;;1.85;;
60038;SDS011;45916;52.734;6.544;2024-02-23T03:29:33;8.70;;;2.25;;
60038;SDS011;45916;52.734;6.544;2024-02-23T03:32:00;8.98;;;2.28;;
60038;SDS011;45916;52.734;6.544;2024-02-23T03:34:26;6.03;;;1.90;;
60038;SDS011;45916;52.734;6.544;2024-02-23T03:36:52;6.35;;;3.13;;
60038;SDS011;45916;52.734;6.544;2024-02-23T03:39:18;7.10;;;2.58;;
60038;SDS011;45916;52.734;6.544;2024-02-23T03:41:44;8.80;;;3.20;;
60038;SDS011;45916;52.734;6.544;2024-02-23T03:44:11;6.38;;;1.70;;
60038;SDS011;45916;52.734;6.544;2024-02-23T03:46:37;7.22;;;2.17;;
60038;SDS011;45916;52.734;6.544;2024-02-23T03:49:03;9.40;;;2.45;;
60038;SDS011;45916;52.734;6.544;2024-02-23T03:51:29;5.00;;;1.60;;
60038;SDS011;45916;52.734;6.544;2024-02-23T03:53:55;5.95;;;1.67;;
60038;SDS011;45916;52.734;6.544;2024-02-23T03:56:21;5.03;;;1.58;;
60038;SDS011;45916;52.734;6.544;2024-02-23T03:58:47;5.80;;;1.63;;
60038;SDS011;45916;52.734;6.544;2024-02-23T04:01:13;4.00;;;1.55;;
60038;SDS011;45916;52.734;6.544;2024-02-23T04:03:39;5.40;;;1.83;;
60038;SDS011;45916;52.734;6.544;2024-02-23T04:06:05;5.38;;;1.80;;
60038;SDS011;45916;52.734;6.544;2024-02-23T04:08:32;6.18;;;1.90;;
60038;SDS011;45916;52.734;6.544;2024-02-23T04:10:58;5.78;;;2.00;;
60038;SDS011;45916;52.734;6.544;2024-02-23T04:13:24;9.52;;;2.63;;
60038;SDS011;45916;52.734;6.544;2024-02-23T04:15:50;3.53;;;1.77;;
60038;SDS011;45916;52.734;6.544;2024-02-23T04:18:16;6.30;;;2.03;;
60038;SDS011;45916;52.734;6.544;2024-02-23T04:20:42;5.28;;;2.40;;
60038;SDS011;45916;52.734;6.544;2024-02-23T04:23:08;8.38;;;3.20;;
60038;SDS011;45916;52.734;6.544;2024-02-23T04:25:35;7.97;;;2.83;;
60038;SDS011;45916;52.734;6.544;2024-02-23T04:28:01;8.77;;;2.65;;
60038;SDS011;45916;52.734;6.544;2024-02-23T04:30:27;8.10;;;3.22;;
60038;SDS011;45916;52.734;6.544;2024-02-23T04:32:53;15.30;;;4.50;;
60038;SDS011;45916;52.734;6.544;2024-02-23T04:35:19;11.70;;;4.40;;
60038;SDS011;45916;52.734;6.544;2024-02-23T04:37:45;10.27;;;4.82;;
60038;SDS011;45916;52.734;6.544;2024-02-23T04:40:11;10.50;;;5.05;;
60038;SDS011;45916;52.734;6.544;2024-02-23T04:42:37;9.80;;;6.90;;
60038;SDS011;45916;52.734;6.544;2024-02-23T04:45:04;8.07;;;5.63;;
60038;SDS011;45916;52.734;6.544;2024-02-23T04:47:30;10.45;;;6.65;;
60038;SDS011;45916;52.734;6.544;2024-02-23T04:49:57;13.32;;;6.75;;
60038;SDS011;45916;52.734;6.544;2024-02-23T04:52:24;12.70;;;8.20;;
60038;SDS011;45916;52.734;6.544;2024-02-23T04:54:50;12.48;;;7.07;;
60038;SDS011;45916;52.734;6.544;2024-02-23T04:57:16;10.77;;;7.13;;
60038;SDS011;45916;52.734;6.544;2024-02-23T04:59:42;12.80;;;6.72;;
60038;SDS011;45916;52.734;6.544;2024-02-23T05:02:08;10.10;;;6.28;;
60038;SDS011;45916;52.734;6.544;2024-02-23T05:04:34;14.82;;;7.30;;
60038;SDS011;45916;52.734;6.544;2024-02-23T05:07:00;12.98;;;7.55;;
60038;SDS011;45916;52.734;6.544;2024-02-23T05:09:26;14.07;;;7.45;;
60038;SDS011;45916;52.734;6.544;2024-02-23T05:11:52;10.65;;;7.05;;
60038;SDS011;45916;52.734;6.544;2024-02-23T05:14:18;14.23;;;7.90;;
60038;SDS011;45916;52.734;6.544;2024-02-23T05:16:44;12.98;;;7.35;;
60038;SDS011;45916;52.734;6.544;2024-02-23T05:19:10;12.27;;;7.10;;
60038;SDS011;45916;52.734;6.544;2024-02-23T05:21:36;11.23;;;6.75;;
60038;SDS011;45916;52.734;6.544;2024-02-23T05:24:03;13.43;;;7.50;;
60038;SDS011;45916;52.734;6.544;2024-02-23T05:26:31;11.80;;;7.50;;
60038;SDS011;45916;52.734;6.544;2024-02-23T05:28:57;11.18;;;6.40;;
60038;SDS011;45916;52.734;6.544;2024-02-23T05:31:43;10.90;;;6.65;;
60038;SDS011;45916;52.734;6.544;2024-02-23T05:34:09;12.48;;;6.53;;
60038;SDS011;45916;52.734;6.544;2024-02-23T05:36:35;11.98;;;7.32;;
60038;SDS011;45916;52.734;6.544;2024-02-23T05:39:01;12.63;;;6.90;;
60038;SDS011;45916;52.734;6.544;2024-02-23T05:41:28;11.68;;;6.57;;
60038;SDS011;45916;52.734;6.544;2024-02-23T05:43:54;12.00;;;6.30;;
60038;SDS011;45916;52.734;6.544;2024-02-23T05:46:20;11.63;;;7.20;;
60038;SDS011;45916;52.734;6.544;2024-02-23T05:48:46;14.05;;;7.20;;
60038;SDS011;45916;52.734;6.544;2024-02-23T05:51:12;11.88;;;6.10;;
60038;SDS011;45916;52.734;6.544;2024-02-23T05:53:38;16.00;;;7.18;;
60038;SDS011;45916;52.734;6.544;2024-02-23T05:56:04;12.32;;;7.55;;
60038;SDS011;45916;52.734;6.544;2024-02-23T05:58:30;11.43;;;6.32;;
60038;SDS011;45916;52.734;6.544;2024-02-23T06:00:56;11.80;;;7.15;;
60038;SDS011;45916;52.734;6.544;2024-02-23T06:03:22;10.25;;;5.13;;
60038;SDS011;45916;52.734;6.544;2024-02-23T06:05:48;10.48;;;5.78;;
60038;SDS011;45916;52.734;6.544;2024-02-23T06:08:14;12.38;;;7.45;;
60038;SDS011;45916;52.734;6.544;2024-02-23T06:10:40;14.02;;;7.47;;
60038;SDS011;45916;52.734;6.544;2024-02-23T06:13:08;16.25;;;7.68;;
60038;SDS011;45916;52.734;6.544;2024-02-23T06:15:34;13.20;;;7.18;;
60038;SDS011;45916;52.734;6.544;2024-02-23T06:18:00;11.40;;;6.35;;
60038;SDS011;45916;52.734;6.544;2024-02-23T06:20:26;17.20;;;7.05;;
60038;SDS011;45916;52.734;6.544;2024-02-23T06:22:52;11.95;;;6.97;;
60038;SDS011;45916;52.734;6.544;2024-02-23T06:25:18;11.43;;;5.88;;
60038;SDS011;45916;52.734;6.544;2024-02-23T06:27:44;10.55;;;5.22;;
60038;SDS011;45916;52.734;6.544;2024-02-23T06:30:10;11.75;;;6.63;;
60038;SDS011;45916;52.734;6.544;2024-02-23T06:32:36;14.02;;;7.53;;
60038;SDS011;45916;52.734;6.544;2024-02-23T06:35:02;10.40;;;5.53;;
60038;SDS011;45916;52.734;6.544;2024-02-23T06:39:57;10.15;;;5.75;;
60038;SDS011;45916;52.734;6.544;2024-02-23T06:42:23;13.10;;;6.25;;
60038;SDS011;45916;52.734;6.544;2024-02-23T06:44:49;13.13;;;7.18;;
60038;SDS011;45916;52.734;6.544;2024-02-23T06:47:16;14.43;;;7.30;;
60038;SDS011;45916;52.734;6.544;2024-02-23T06:49:42;10.95;;;6.00;;
60038;SDS011;45916;52.734;6.544;2024-02-23T06:52:08;11.93;;;6.95;;
60038;SDS011;45916;52.734;6.544;2024-02-23T06:54:34;11.30;;;6.47;;
60038;SDS011;45916;52.734;6.544;2024-02-23T06:57:00;10.07;;;4.60;;
60038;SDS011;45916;52.734;6.544;2024-02-23T06:59:26;14.05;;;6.10;;
60038;SDS011;45916;52.734;6.544;2024-02-23T07:01:52;10.68;;;4.97;;
60038;SDS011;45916;52.734;6.544;2024-02-23T07:04:19;10.70;;;6.20;;
60038;SDS011;45916;52.734;6.544;2024-02-23T07:06:45;12.50;;;5.82;;
60038;SDS011;45916;52.734;6.544;2024-02-23T07:09:11;15.07;;;5.07;;
60038;SDS011;45916;52.734;6.544;2024-02-23T07:11:37;13.77;;;5.90;;
60038;SDS011;45916;52.734;6.544;2024-02-23T07:14:04;9.85;;;4.88;;
60038;SDS011;45916;52.734;6.544;2024-02-23T07:16:30;11.60;;;5.40;;
60038;SDS011;45916;52.734;6.544;2024-02-23T07:18:57;11.50;;;5.03;;
60038;SDS011;45916;52.734;6.544;2024-02-23T07:21:23;14.20;;;5.13;;
60038;SDS011;45916;52.734;6.544;2024-02-23T07:23:50;8.43;;;4.07;;
60038;SDS011;45916;52.734;6.544;2024-02-23T07:26:17;11.90;;;3.85;;
60038;SDS011;45916;52.734;6.544;2024-02-23T07:28:44;10.10;;;3.55;;
60038;SDS011;45916;52.734;6.544;2024-02-23T07:31:10;11.75;;;3.83;;
60038;SDS011;45916;52.734;6.544;2024-02-23T07:33:37;7.95;;;3.80;;
60038;SDS011;45916;52.734;6.544;2024-02-23T07:36:03;6.30;;;3.33;;
60038;SDS011;45916;52.734;6.544;2024-02-23T07:38:30;7.28;;;3.50;;
60038;SDS011;45916;52.734;6.544;2024-02-23T07:40:56;7.82;;;3.20;;
60038;SDS011;45916;52.734;6.544;2024-02-23T07:43:23;11.20;;;4.40;;
60038;SDS011;45916;52.734;6.544;2024-02-23T07:45:51;13.18;;;4.85;;
60038;SDS011;45916;52.734;6.544;2024-02-23T07:48:17;9.68;;;3.88;;
60038;SDS011;45916;52.734;6.544;2024-02-23T07:50:43;8.68;;;3.50;;
60038;SDS011;45916;52.734;6.544;2024-02-23T07:53:09;10.73;;;3.38;;
60038;SDS011;45916;52.734;6.544;2024-02-23T07:55:35;9.18;;;3.40;;
60038;SDS011;45916;52.734;6.544;2024-02-23T07:58:01;10.20;;;3.15;;
60038;SDS011;45916;52.734;6.544;2024-02-23T08:00:27;8.88;;;2.60;;
60038;SDS011;45916;52.734;6.544;2024-02-23T08:02:53;8.77;;;3.33;;
60038;SDS011;45916;52.734;6.544;2024-02-23T08:05:22;7.70;;;2.67;;
60038;SDS011;45916;52.734;6.544;2024-02-23T08:07:48;6.97;;;3.10;;
60038;SDS011;45916;52.734;6.544;2024-02-23T08:10:15;6.68;;;3.03;;
60038;SDS011;45916;52.734;6.544;2024-02-23T08:12:41;8.00;;;3.20;;
60038;SDS011;45916;52.734;6.544;2024-02-23T08:15:07;9.70;;;3.58;;
60038;SDS011;45916;52.734;6.544;2024-02-23T08:17:33;6.70;;;2.78;;
60038;SDS011;45916;52.734;6.544;2024-02-23T08:19:59;7.28;;;2.55;;
60038;SDS011;45916;52.734;6.544;2024-02-23T08:22:25;7.63;;;2.80;;
60038;SDS011;45916;52.734;6.544;2024-02-23T08:24:51;9.23;;;3.28;;
60038;SDS011;45916;52.734;6.544;2024-02-23T08:27:17;6.72;;;2.60;;
60038;SDS011;45916;52.734;6.544;2024-02-23T08:29:43;8.05;;;2.83;;
60038;SDS011;45916;52.734;6.544;2024-02-23T08:32:09;7.35;;;2.90;;
60038;SDS011;45916;52.734;6.544;2024-02-23T08:34:35;9.07;;;2.80;;
60038;SDS011;45916;52.734;6.544;2024-02-23T08:37:01;6.72;;;2.95;;
60038;SDS011;45916;52.734;6.544;2024-02-23T08:39:27;4.60;;;1.60;;
60038;SDS011;45916;52.734;6.544;2024-02-23T08:41:54;4.38;;;2.40;;
60038;SDS011;45916;52.734;6.544;2024-02-23T08:44:20;7.43;;;2.47;;
60038;SDS011;45916;52.734;6.544;2024-02-23T08:46:46;5.35;;;1.90;;
60038;SDS011;45916;52.734;6.544;2024-02-23T08:49:13;5.72;;;1.90;;
60038;SDS011;45916;52.734;6.544;2024-02-23T08:51:39;7.47;;;2.30;;
60038;SDS011;45916;52.734;6.544;2024-02-23T08:54:05;8.30;;;2.00;;
60038;SDS011;45916;52.734;6.544;2024-02-23T08:56:36;4.97;;;1.40;;
60038;SDS011;45916;52.734;6.544;2024-02-23T08:59:04;6.10;;;2.97;;
60038;SDS011;45916;52.734;6.544;2024-02-23T09:01:30;7.03;;;2.00;;
60038;SDS011;45916;52.734;6.544;2024-02-23T09:03:56;8.60;;;2.58;;
60038;SDS011;45916;52.734;6.544;2024-02-23T09:06:22;6.82;;;1.70;;
60038;SDS011;45916;52.734;6.544;2024-02-23T09:08:48;6.10;;;2.17;;
60038;SDS011;45916;52.734;6.544;2024-02-23T09:11:14;5.07;;;1.65;;
60038;SDS011;45916;52.734;6.544;2024-02-23T09:13:40;6.30;;;2.30;;
60038;SDS011;45916;52.734;6.544;2024-02-23T09:16:07;5.38;;;2.08;;
60038;SDS011;45916;52.734;6.544;2024-02-23T09:18:34;7.57;;;1.60;;
60038;SDS011;45916;52.734;6.544;2024-02-23T09:21:00;7.53;;;1.92;;
60038;SDS011;45916;52.734;6.544;2024-02-23T09:23:26;4.70;;;1.30;;
60038;SDS011;45916;52.734;6.544;2024-02-23T09:25:52;8.15;;;2.20;;
60038;SDS011;45916;52.734;6.544;2024-02-23T09:28:18;9.18;;;2.00;;
60038;SDS011;45916;52.734;6.544;2024-02-23T09:30:45;6.93;;;2.00;;
60038;SDS011;45916;52.734;6.544;2024-02-23T09:33:11;6.00;;;1.73;;
60038;SDS011;45916;52.734;6.544;2024-02-23T09:35:37;8.90;;;1.98;;
60038;SDS011;45916;52.734;6.544;2024-02-23T09:38:03;6.43;;;2.28;;
60038;SDS011;45916;52.734;6.544;2024-02-23T09:40:30;5.90;;;2.20;;
60038;SDS011;45916;52.734;6.544;2024-02-23T09:42:56;6.90;;;1.98;;
60038;SDS011;45916;52.734;6.544;2024-02-23T09:45:23;5.25;;;2.03;;
60038;SDS011;45916;52.734;6.544;2024-02-23T09:47:50;6.05;;;1.50;;
60038;SDS011;45916;52.734;6.544;2024-02-23T09:50:17;6.25;;;1.90;;
60038;SDS011;45916;52.734;6.544;2024-02-23T09:52:46;7.15;;;1.98;;
60038;SDS011;45916;52.734;6.544;2024-02-23T09:55:15;5.55;;;2.00;;
60038;SDS011;45916;52.734;6.544;2024-02-23T09:57:41;6.97;;;2.20;;
60038;SDS011;45916;52.734;6.544;2024-02-23T10:00:08;5.40;;;1.98;;
60038;SDS011;45916;52.734;6.544;2024-02-23T10:02:34;8.07;;;3.28;;
60038;SDS011;45916;52.734;6.544;2024-02-23T10:05:00;5.90;;;2.38;;
60038;SDS011;45916;52.734;6.544;2024-02-23T10:07:27;11.27;;;3.53;;
60038;SDS011;45916;52.734;6.544;2024-02-23T10:09:53;6.90;;;2.50;;
60038;SDS011;45916;52.734;6.544;2024-02-23T10:12:22;4.35;;;1.90;;
60038;SDS011;45916;52.734;6.544;2024-02-23T10:14:48;7.47;;;2.75;;
60038;SDS011;45916;52.734;6.544;2024-02-23T10:17:14;4.70;;;1.80;;
60038;SDS011;45916;52.734;6.544;2024-02-23T10:19:40;5.45;;;1.80;;
60038;SDS011;45916;52.734;6.544;2024-02-23T10:22:06;5.72;;;1.83;;
60038;SDS011;45916;52.734;6.544;2024-02-23T10:24:33;7.15;;;2.08;;
60038;SDS011;45916;52.734;6.544;2024-02-23T10:27:00;6.30;;;1.75;;
60038;SDS011;45916;52.734;6.544;2024-02-23T10:29:27;4.95;;;1.85;;
60038;SDS011;45916;52.734;6.544;2024-02-23T10:31:53;4.85;;;1.73;;
60038;SDS011;45916;52.734;6.544;2024-02-23T10:34:22;5.82;;;1.60;;
60038;SDS011;45916;52.734;6.544;2024-02-23T10:36:49;9.15;;;1.92;;
60038;SDS011;45916;52.734;6.544;2024-02-23T10:39:16;4.55;;;1.65;;
60038;SDS011;45916;52.734;6.544;2024-02-23T10:41:46;4.47;;;1.48;;
60038;SDS011;45916;52.734;6.544;2024-02-23T10:44:14;6.35;;;2.05;;
60038;SDS011;45916;52.734;6.544;2024-02-23T10:46:41;7.78;;;2.45;;
60038;SDS011;45916;52.734;6.544;2024-02-23T10:49:07;6.53;;;2.13;;
60038;SDS011;45916;52.734;6.544;2024-02-23T10:51:34;6.38;;;1.63;;
60038;SDS011;45916;52.734;6.544;2024-02-23T10:54:01;7.43;;;1.90;;
60038;SDS011;45916;52.734;6.544;2024-02-23T10:56:27;7.90;;;2.17;;
60038;SDS011;45916;52.734;6.544;2024-02-23T10:58:54;5.95;;;1.83;;
60038;SDS011;45916;52.734;6.544;2024-02-23T11:01:20;7.75;;;2.13;;
60038;SDS011;45916;52.734;6.544;2024-02-23T11:03:48;6.30;;;1.95;;
60038;SDS011;45916;52.734;6.544;2024-02-23T11:06:16;4.22;;;1.80;;
60038;SDS011;45916;52.734;6.544;2024-02-23T11:08:46;5.13;;;1.30;;
60038;SDS011;45916;52.734;6.544;2024-02-23T11:11:15;7.15;;;2.35;;
60038;SDS011;45916;52.734;6.544;2024-02-23T11:13:43;5.75;;;1.92;;
60038;SDS011;45916;52.734;6.544;2024-02-23T11:16:09;7.10;;;2.15;;
60038;SDS011;45916;52.734;6.544;2024-02-23T11:18:36;7.53;;;1.98;;
60038;SDS011;45916;52.734;6.544;2024-02-23T11:21:03;6.80;;;1.95;;
60038;SDS011;45916;52.734;6.544;2024-02-23T11:23:42;7.55;;;2.53;;
60038;SDS011;45916;52.734;6.544;2024-02-23T11:26:12;5.32;;;2.00;;
60038;SDS011;45916;52.734;6.544;2024-02-23T11:28:56;6.07;;;2.28;;
60038;SDS011;45916;52.734;6.544;2024-02-23T11:31:23;7.63;;;2.03;;
60038;SDS011;45916;52.734;6.544;2024-02-23T11:33:54;8.23;;;2.70;;
60038;SDS011;45916;52.734;6.544;2024-02-23T11:39:04;5.95;;;2.15;;
60038;SDS011;45916;52.734;6.544;2024-02-23T11:41:30;4.57;;;2.22;;
60038;SDS011;45916;52.734;6.544;2024-02-23T11:43:56;6.63;;;2.10;;
60038;SDS011;45916;52.734;6.544;2024-02-23T11:46:26;4.97;;;1.58;;
60038;SDS011;45916;52.734;6.544;2024-02-23T11:48:52;9.15;;;2.78;;
60038;SDS011;45916;52.734;6.544;2024-02-23T11:51:21;6.75;;;2.20;;
60038;SDS011;45916;52.734;6.544;2024-02-23T11:53:48;6.28;;;2.28;;
60038;SDS011;45916;52.734;6.544;2024-02-23T11:56:15;7.45;;;1.95;;
60038;SDS011;45916;52.734;6.544;2024-02-23T11:58:41;7.15;;;2.22;;
60038;SDS011;45916;52.734;6.544;2024-02-23T12:01:07;8.07;;;2.35;;
60038;SDS011;45916;52.734;6.544;2024-02-23T12:03:34;4.55;;;1.67;;
60038;SDS011;45916;52.734;6.544;2024-02-23T12:06:01;5.55;;;2.22;;
60038;SDS011;45916;52.734;6.544;2024-02-23T12:08:27;6.18;;;2.20;;
60038;SDS011;45916;52.734;6.544;2024-02-23T12:10:54;6.07;;;2.42;;
60038;SDS011;45916;52.734;6.544;2024-02-23T12:13:20;4.63;;;1.83;;
60038;SDS011;45916;52.734;6.544;2024-02-23T12:15:52;6.20;;;2.22;;
60038;SDS011;45916;52.734;6.544;2024-02-23T12:18:20;6.45;;;2.22;;
60038;SDS011;45916;52.734;6.544;2024-02-23T12:20:48;5.10;;;1.95;;
60038;SDS011;45916;52.734;6.544;2024-02-23T12:23:14;8.57;;;2.50;;
60038;SDS011;45916;52.734;6.544;2024-02-23T12:25:41;6.60;;;2.63;;
60038;SDS011;45916;52.734;6.544;2024-02-23T12:28:18;6.80;;;2.53;;
60038;SDS011;45916;52.734;6.544;2024-02-23T12:30:44;6.13;;;2.92;;
60038;SDS011;45916;52.734;6.544;2024-02-23T12:33:12;7.57;;;2.35;;
60038;SDS011;45916;52.734;6.544;2024-02-23T12:35:41;8.20;;;2.58;;
60038;SDS011;45916;52.734;6.544;2024-02-23T12:38:07;6.85;;;2.30;;
60038;SDS011;45916;52.734;6.544;2024-02-23T12:40:34;9.50;;;2.63;;
60038;SDS011;45916;52.734;6.544;2024-02-23T12:43:00;8.35;;;3.00;;
60038;SDS011;45916;52.734;6.544;2024-02-23T12:45:26;12.18;;;3.28;;
60038;SDS011;45916;52.734;6.544;2024-02-23T12:47:52;5.90;;;2.80;;
60038;SDS011;45916;52.734;6.544;2024-02-23T12:50:18;7.95;;;3.00;;
60038;SDS011;45916;52.734;6.544;2024-02-23T12:52:44;6.93;;;2.42;;
60038;SDS011;45916;52.734;6.544;2024-02-23T12:55:11;5.75;;;2.60;;
60038;SDS011;45916;52.734;6.544;2024-02-23T12:57:37;8.00;;;2.75;;
60038;SDS011;45916;52.734;6.544;2024-02-23T13:00:04;6.65;;;2.70;;
60038;SDS011;45916;52.734;6.544;2024-02-23T13:02:30;5.22;;;2.47;;
60038;SDS011;45916;52.734;6.544;2024-02-23T13:04:56;5.40;;;2.08;;
60038;SDS011;45916;52.734;6.544;2024-02-23T13:07:22;7.25;;;2.30;;
60038;SDS011;45916;52.734;6.544;2024-02-23T13:09:49;6.68;;;2.13;;
60038;SDS011;45916;52.734;6.544;2024-02-23T13:12:15;5.00;;;2.40;;
60038;SDS011;45916;52.734;6.544;2024-02-23T13:14:41;6.05;;;2.40;;
60038;SDS011;45916;52.734;6.544;2024-02-23T13:17:07;6.60;;;2.25;;
60038;SDS011;45916;52.734;6.544;2024-02-23T13:19:33;7.05;;;2.70;;
60038;SDS011;45916;52.734;6.544;2024-02-23T13:21:59;7.22;;;2.10;;
60038;SDS011;45916;52.734;6.544;2024-02-23T13:24:26;6.57;;;2.28;;
60038;SDS011;45916;52.734;6.544;2024-02-23T13:26:52;5.97;;;2.20;;
60038;SDS011;45916;52.734;6.544;2024-02-23T13:29:18;6.97;;;2.78;;
60038;SDS011;45916;52.734;6.544;2024-02-23T13:31:45;6.55;;;2.50;;
60038;SDS011;45916;52.734;6.544;2024-02-23T13:34:11;7.25;;;2.42;;
60038;SDS011;45916;52.734;6.544;2024-02-23T13:36:40;8.38;;;2.58;;
60038;SDS011;45916;52.734;6.544;2024-02-23T13:39:06;6.10;;;2.78;;
60038;SDS011;45916;52.734;6.544;2024-02-23T13:41:33;5.95;;;2.30;;
60038;SDS011;45916;52.734;6.544;2024-02-23T13:43:59;6.13;;;2.67;;
60038;SDS011;45916;52.734;6.544;2024-02-23T13:46:25;7.60;;;2.75;;
60038;SDS011;45916;52.734;6.544;2024-02-23T13:49:01;6.63;;;2.78;;
60038;SDS011;45916;52.734;6.544;2024-02-23T13:51:28;7.05;;;2.22;;
60038;SDS011;45916;52.734;6.544;2024-02-23T13:53:54;6.78;;;2.30;;
60038;SDS011;45916;52.734;6.544;2024-02-23T13:56:20;7.22;;;2.58;;
60038;SDS011;45916;52.734;6.544;2024-02-23T13:58:46;5.63;;;2.40;;
60038;SDS011;45916;52.734;6.544;2024-02-23T14:01:14;5.80;;;2.40;;
60038;SDS011;45916;52.734;6.544;2024-02-23T14:03:40;7.65;;;2.40;;
60038;SDS011;45916;52.734;6.544;2024-02-23T14:06:06;4.18;;;2.00;;
60038;SDS011;45916;52.734;6.544;2024-02-23T14:08:32;8.35;;;2.80;;
60038;SDS011;45916;52.734;6.544;2024-02-23T14:11:02;6.72;;;2.55;;
60038;SDS011;45916;52.734;6.544;2024-02-23T14:13:32;6.97;;;3.47;;
60038;SDS011;45916;52.734;6.544;2024-02-23T14:15:58;6.25;;;2.50;;
60038;SDS011;45916;52.734;6.544;2024-02-23T14:18:26;7.18;;;2.65;;
60038;SDS011;45916;52.734;6.544;2024-02-23T14:20:52;6.25;;;2.10;;
60038;SDS011;45916;52.734;6.544;2024-02-23T14:23:18;4.63;;;2.25;;
60038;SDS011;45916;52.734;6.544;2024-02-23T14:25:44;6.80;;;2.05;;
60038;SDS011;45916;52.734;6.544;2024-02-23T14:28:10;6.93;;;2.53;;
60038;SDS011;45916;52.734;6.544;2024-02-23T14:30:37;4.13;;;2.00;;
60038;SDS011;45916;52.734;6.544;2024-02-23T14:33:05;6.05;;;2.22;;
60038;SDS011;45916;52.734;6.544;2024-02-23T14:35:31;6.75;;;2.30;;
60038;SDS011;45916;52.734;6.544;2024-02-23T14:37:57;12.73;;;2.63;;
60038;SDS011;45916;52.734;6.544;2024-02-23T14:40:23;5.35;;;2.40;;
60038;SDS011;45916;52.734;6.544;2024-02-23T14:42:49;6.85;;;2.67;;
60038;SDS011;45916;52.734;6.544;2024-02-23T14:45:15;4.95;;;1.80;;
60038;SDS011;45916;52.734;6.544;2024-02-23T14:47:41;7.20;;;2.60;;